createdAt,value
2018-03-30T00:01:54.815Z,66.24
2018-03-30T00:04:27.320Z,65.93
2018-03-30T00:07:09.968Z,66.10
2018-03-30T00:09:54.240Z,66.16
2018-03-30T00:12:26.740Z,65.94
2018-03-30T00:14:59.907Z,66.04
2018-03-30T00:17:32.776Z,66.11
2018-03-30T00:20:05.326Z,66.38
2018-03-30T00:22:38.072Z,66.74
2018-03-30T00:25:10.692Z,66.50
2018-03-30T00:27:43.202Z,66.53
2018-03-30T00:30:15.700Z,66.54
2018-03-30T00:32:48.207Z,66.62
2018-03-30T00:35:20.690Z,66.49
2018-03-30T00:37:53.194Z,67.27
2018-03-30T00:40:25.671Z,66.76
2018-03-30T00:42:58.186Z,65.91
2018-03-30T00:45:30.683Z,66.14
2018-03-30T00:48:04.302Z,65.80
2018-03-30T00:50:36.818Z,65.81
2018-03-30T00:53:21.191Z,65.80
2018-03-30T00:55:53.671Z,66.08
2018-03-30T00:58:26.174Z,65.81
2018-03-30T01:00:58.669Z,65.86
2018-03-30T01:03:31.459Z,65.86
2018-03-30T01:06:04.230Z,65.45
2018-03-30T01:08:36.986Z,65.71
2018-03-30T01:11:10.461Z,66.27
2018-03-30T01:13:42.977Z,66.56
2018-03-30T01:16:15.467Z,66.51
2018-03-30T01:18:47.962Z,66.38
2018-03-30T01:21:20.438Z,66.38
2018-03-30T01:23:52.933Z,66.53
2018-03-30T01:26:25.427Z,66.71
2018-03-30T01:28:57.921Z,66.57
2018-03-30T01:31:31.564Z,66.44
2018-03-30T01:34:04.223Z,66.53
2018-03-30T01:36:36.762Z,65.96
2018-03-30T01:39:09.386Z,67.11
2018-03-30T01:41:41.963Z,66.31
2018-03-30T01:44:14.506Z,66.27
2018-03-30T01:46:46.987Z,66.50
2018-03-30T01:49:19.487Z,66.43
2018-03-30T01:51:51.956Z,66.71
2018-03-30T01:54:24.454Z,67.06
2018-03-30T01:56:56.927Z,66.82
2018-03-30T01:59:30.308Z,66.57
2018-03-30T02:02:03.119Z,66.34
2018-03-30T02:04:35.772Z,66.27
2018-03-30T02:07:08.333Z,66.10
2018-03-30T02:09:40.856Z,66.39
2018-03-30T02:12:13.350Z,66.46
2018-03-30T02:14:45.842Z,66.38
2018-03-30T02:17:18.323Z,66.43
2018-03-30T02:19:50.823Z,66.87
2018-03-30T02:22:23.302Z,66.71
2018-03-30T02:24:55.801Z,66.42
2018-03-30T02:27:30.055Z,66.75
2018-03-30T02:30:02.731Z,66.85
2018-03-30T02:32:35.352Z,66.79
2018-03-30T02:35:07.972Z,66.67
2018-03-30T02:37:40.573Z,66.60
2018-03-30T02:40:13.087Z,66.79
2018-03-30T02:42:45.586Z,66.55
2018-03-30T02:45:18.102Z,66.96
2018-03-30T02:47:50.574Z,66.97
2018-03-30T02:50:23.066Z,66.60
2018-03-30T02:52:55.548Z,67.00
2018-03-30T02:55:28.043Z,66.64
2018-03-30T02:58:01.765Z,67.16
2018-03-30T03:00:34.693Z,67.28
2018-03-30T03:03:07.272Z,67.52
2018-03-30T03:05:39.938Z,67.17
2018-03-30T03:08:12.479Z,67.26
2018-03-30T03:10:44.997Z,67.23
2018-03-30T03:13:17.504Z,67.26
2018-03-30T03:15:49.996Z,67.58
2018-03-30T03:18:22.502Z,67.64
2018-03-30T03:20:54.982Z,67.54
2018-03-30T03:23:27.478Z,67.48
2018-03-30T03:26:00.100Z,67.40
2018-03-30T03:28:32.886Z,67.37
2018-03-30T03:31:05.611Z,67.57
2018-03-30T03:33:38.225Z,67.35
2018-03-30T03:36:10.891Z,67.53
2018-03-30T03:38:43.474Z,66.94
2018-03-30T03:41:15.994Z,67.36
2018-03-30T03:43:48.490Z,67.33
2018-03-30T03:46:20.975Z,66.76
2018-03-30T03:48:53.474Z,66.60
2018-03-30T03:51:25.965Z,66.65
2018-03-30T03:53:58.476Z,67.14
2018-03-30T03:56:31.158Z,67.04
2018-03-30T03:59:04.340Z,67.43
2018-03-30T04:01:36.996Z,67.36
2018-03-30T04:04:09.610Z,67.41
2018-03-30T04:06:42.190Z,67.37
2018-03-30T04:09:14.689Z,67.30
2018-03-30T04:11:47.166Z,67.42
2018-03-30T04:14:19.655Z,67.40
2018-03-30T04:16:52.125Z,67.45
2018-03-30T04:19:24.623Z,67.47
2018-03-30T04:21:57.098Z,67.19
2018-03-30T04:24:30.194Z,67.30
2018-03-30T04:27:03.455Z,66.86
2018-03-30T04:29:36.228Z,67.29
2018-03-30T04:32:08.844Z,67.38
2018-03-30T04:34:41.497Z,66.80
2018-03-30T04:37:14.059Z,66.54
2018-03-30T04:39:46.566Z,66.48
2018-03-30T04:42:19.042Z,66.25
2018-03-30T04:44:51.547Z,66.60
2018-03-30T04:47:24.022Z,66.53
2018-03-30T04:49:56.520Z,66.45
2018-03-30T04:52:29.054Z,66.39
2018-03-30T04:55:01.965Z,66.59
2018-03-30T04:57:35.103Z,66.35
2018-03-30T05:00:07.883Z,66.32
2018-03-30T05:02:40.472Z,66.23
2018-03-30T05:05:13.014Z,66.34
2018-03-30T05:07:45.521Z,66.37
2018-03-30T05:10:18.021Z,66.20
2018-03-30T05:12:50.494Z,66.36
2018-03-30T05:15:23.002Z,66.39
2018-03-30T05:17:55.506Z,66.26
2018-03-30T05:20:28.007Z,66.64
2018-03-30T05:23:00.928Z,66.97
2018-03-30T05:25:33.780Z,67.39
2018-03-30T05:28:06.369Z,68.15
2018-03-30T05:30:39.093Z,68.31
2018-03-30T05:33:11.633Z,67.28
2018-03-30T05:35:44.134Z,66.97
2018-03-30T05:38:16.613Z,66.57
2018-03-30T05:40:49.105Z,67.76
2018-03-30T05:43:21.584Z,67.60
2018-03-30T05:45:54.078Z,67.73
2018-03-30T05:48:26.554Z,67.75
2018-03-30T05:50:59.306Z,67.37
2018-03-30T05:53:31.946Z,67.36
2018-03-30T05:56:04.721Z,67.55
2018-03-30T05:58:37.271Z,67.28
2018-03-30T06:01:09.980Z,67.33
2018-03-30T06:03:42.497Z,67.39
2018-03-30T06:06:15.042Z,68.06
2018-03-30T06:08:47.518Z,68.41
2018-03-30T06:11:20.011Z,68.29
2018-03-30T06:13:52.491Z,68.39
2018-03-30T06:16:24.985Z,69.07
2018-03-30T06:18:57.465Z,63.53
2018-03-30T06:21:30.204Z,67.07
2018-03-30T06:24:03.077Z,67.83
2018-03-30T06:26:35.749Z,68.17
2018-03-30T06:29:08.247Z,68.55
2018-03-30T06:31:40.866Z,66.26
2018-03-30T06:34:13.375Z,68.76
2018-03-30T06:36:45.886Z,69.39
2018-03-30T06:39:18.370Z,66.50
2018-03-30T06:41:50.870Z,64.70
2018-03-30T06:44:23.352Z,64.92
2018-03-30T06:46:55.851Z,69.46
2018-03-30T06:49:28.331Z,69.87
2018-03-30T06:52:01.101Z,66.23
2018-03-30T06:54:33.804Z,69.91
2018-03-30T06:57:06.475Z,70.12
2018-03-30T06:59:39.200Z,64.36
2018-03-30T07:02:11.783Z,69.33
2018-03-30T07:04:44.326Z,68.73
2018-03-30T07:07:16.815Z,69.41
2018-03-30T07:09:49.328Z,68.51
2018-03-30T07:12:21.811Z,69.87
2018-03-30T07:14:54.315Z,69.10
2018-03-30T07:17:26.816Z,67.81
2018-03-30T07:19:59.378Z,70.17
2018-03-30T07:22:32.138Z,69.54
2018-03-30T07:25:05.248Z,70.56
2018-03-30T07:27:38.023Z,70.36
2018-03-30T07:30:10.633Z,69.30
2018-03-30T07:32:43.110Z,69.02
2018-03-30T07:35:15.604Z,69.88
2018-03-30T07:37:48.088Z,69.74
2018-03-30T07:40:20.589Z,69.20
2018-03-30T07:42:53.063Z,68.95
2018-03-30T07:45:25.562Z,68.09
2018-03-30T07:47:58.038Z,68.06
2018-03-30T07:50:31.686Z,69.31
2018-03-30T07:53:04.454Z,69.15
2018-03-30T07:55:37.150Z,69.89
2018-03-30T07:58:09.769Z,65.08
2018-03-30T08:00:42.405Z,69.24
2018-03-30T08:03:14.903Z,68.08
2018-03-30T08:05:47.434Z,68.68
2018-03-30T08:08:19.918Z,63.32
2018-03-30T08:10:52.438Z,68.95
2018-03-30T08:13:24.958Z,68.96
2018-03-30T08:15:57.464Z,66.65
2018-03-30T08:18:30.272Z,69.59
2018-03-30T08:21:04.417Z,68.67
2018-03-30T08:23:37.093Z,65.82
2018-03-30T08:26:09.716Z,67.34
2018-03-30T08:28:42.430Z,63.09
2018-03-30T08:31:14.954Z,63.30
2018-03-30T08:33:47.459Z,68.02
2018-03-30T08:36:19.961Z,68.62
2018-03-30T08:38:52.438Z,68.51
2018-03-30T08:41:24.932Z,69.27
2018-03-30T08:43:57.406Z,69.35
2018-03-30T08:46:30.035Z,69.94
2018-03-30T08:49:02.616Z,70.24
2018-03-30T08:51:35.267Z,64.68
2018-03-30T08:54:07.811Z,65.22
2018-03-30T08:56:40.768Z,66.87
2018-03-30T08:59:13.299Z,62.79
2018-03-30T09:01:45.815Z,70.08
2018-03-30T09:04:18.351Z,68.94
2018-03-30T09:06:50.806Z,60.81
2018-03-30T09:09:23.291Z,69.17
2018-03-30T09:11:55.781Z,60.97
2018-03-30T09:14:28.250Z,69.09
2018-03-30T09:17:01.453Z,63.96
2018-03-30T09:19:34.209Z,65.94
2018-03-30T09:22:06.822Z,68.17
2018-03-30T09:24:39.361Z,67.39
2018-03-30T09:27:11.932Z,68.79
2018-03-30T09:29:50.110Z,62.09
2018-03-30T09:32:22.614Z,67.27
2018-03-30T09:34:55.096Z,63.77
2018-03-30T09:37:27.590Z,58.83
2018-03-30T09:40:00.181Z,67.46
2018-03-30T09:42:33.214Z,65.53
2018-03-30T09:45:05.855Z,62.11
2018-03-30T09:47:38.666Z,60.43
2018-03-30T09:50:11.235Z,68.14
2018-03-30T09:52:43.776Z,60.07
2018-03-30T09:55:16.255Z,67.62
2018-03-30T09:57:48.750Z,68.13
2018-03-30T10:00:21.220Z,67.95
2018-03-30T10:02:53.717Z,66.26
2018-03-30T10:05:26.190Z,66.06
2018-03-30T10:07:58.694Z,60.46
2018-03-30T10:10:32.408Z,67.27
2018-03-30T10:13:05.056Z,68.68
2018-03-30T10:15:37.800Z,59.38
2018-03-30T10:18:10.501Z,68.69
2018-03-30T10:20:43.077Z,65.98
2018-03-30T10:23:15.598Z,64.61
2018-03-30T10:25:48.083Z,67.52
2018-03-30T10:28:20.577Z,64.15
2018-03-30T10:30:53.054Z,67.31
2018-03-30T10:33:25.541Z,58.11
2018-03-30T10:35:58.036Z,63.54
2018-03-30T10:38:30.724Z,68.31
2018-03-30T10:41:03.363Z,62.72
2018-03-30T10:43:35.911Z,64.53
2018-03-30T10:46:08.544Z,64.21
2018-03-30T10:48:41.100Z,62.48
2018-03-30T10:51:13.614Z,67.95
2018-03-30T10:53:46.097Z,65.84
2018-03-30T10:56:18.590Z,62.09
2018-03-30T10:58:51.607Z,63.92
2018-03-30T11:01:24.116Z,68.16
2018-03-30T11:03:56.590Z,67.49
2018-03-30T11:06:29.153Z,67.89
2018-03-30T11:09:01.736Z,56.66
2018-03-30T11:11:34.294Z,60.20
2018-03-30T11:14:06.825Z,68.16
2018-03-30T11:16:39.389Z,56.35
2018-03-30T11:19:11.897Z,61.38
2018-03-30T11:21:44.402Z,62.52
2018-03-30T11:24:16.931Z,60.49
2018-03-30T11:26:49.426Z,64.88
2018-03-30T11:29:21.902Z,66.94
2018-03-30T11:31:54.423Z,65.44
2018-03-30T11:34:26.924Z,53.22
2018-03-30T11:36:59.523Z,52.93
2018-03-30T11:39:32.114Z,63.59
2018-03-30T11:42:04.630Z,61.78
2018-03-30T11:44:37.229Z,61.64
2018-03-30T11:47:09.806Z,64.74
2018-03-30T11:49:42.314Z,60.96
2018-03-30T11:52:14.867Z,59.39
2018-03-30T11:54:47.354Z,58.01
2018-03-30T11:57:19.854Z,62.57
2018-03-30T11:59:52.344Z,58.87
2018-03-30T12:02:24.877Z,66.32
2018-03-30T12:04:57.375Z,57.53
2018-03-30T12:07:30.391Z,60.94
2018-03-30T12:10:02.981Z,64.48
2018-03-30T12:12:35.529Z,63.01
2018-03-30T12:15:09.213Z,59.58
2018-03-30T12:17:41.714Z,65.03
2018-03-30T12:20:14.205Z,65.92
2018-03-30T12:22:46.698Z,51.33
2018-03-30T12:25:19.174Z,63.13
2018-03-30T12:27:51.670Z,65.11
2018-03-30T12:30:24.150Z,63.03
2018-03-30T12:32:56.707Z,49.25
2018-03-30T12:35:29.200Z,51.57
2018-03-30T12:38:01.717Z,49.68
2018-03-30T12:40:34.294Z,62.42
2018-03-30T12:43:06.806Z,62.54
2018-03-30T12:45:39.310Z,54.14
2018-03-30T12:48:11.811Z,52.73
2018-03-30T12:50:44.302Z,56.63
2018-03-30T12:53:16.803Z,57.04
2018-03-30T12:55:49.284Z,43.89
2018-03-30T12:58:21.791Z,59.79
2018-03-30T13:00:54.275Z,46.50
2018-03-30T13:03:26.776Z,44.95
2018-03-30T13:05:59.270Z,48.89
2018-03-30T13:08:31.802Z,60.98
2018-03-30T13:11:04.345Z,52.69
2018-03-30T13:13:36.911Z,49.21
2018-03-30T13:16:09.414Z,58.71
2018-03-30T13:18:41.910Z,49.17
2018-03-30T13:21:14.414Z,57.03
2018-03-30T13:23:46.909Z,50.39
2018-03-30T13:26:19.389Z,51.24
2018-03-30T13:28:51.885Z,53.05
2018-03-30T13:31:24.365Z,58.91
2018-03-30T13:33:56.862Z,59.79
2018-03-30T13:36:29.406Z,58.81
2018-03-30T13:39:01.939Z,55.76
2018-03-30T13:41:34.436Z,57.16
2018-03-30T13:44:06.955Z,52.05
2018-03-30T13:46:39.438Z,45.01
2018-03-30T13:49:11.938Z,44.34
2018-03-30T13:52:01.072Z,42.56
2018-03-30T13:54:34.462Z,48.22
2018-03-30T13:57:10.206Z,44.14
2018-03-30T13:59:43.621Z,44.62
2018-03-30T14:05:32.433Z,51.90
2018-03-30T14:08:06.595Z,52.58
2018-03-30T14:10:44.957Z,46.15
2018-03-30T14:13:17.553Z,54.64
2018-03-30T14:15:51.047Z,49.22
2018-03-30T14:18:26.411Z,46.92
2018-03-30T14:21:02.643Z,47.12
2018-03-30T14:23:36.152Z,43.63
2018-03-30T14:26:13.403Z,52.46
2018-03-30T14:31:57.753Z,49.58
2018-03-30T14:34:35.674Z,51.62
2018-03-30T14:37:10.709Z,50.77
2018-03-30T14:42:58.961Z,43.87
2018-03-30T14:48:37.664Z,52.65
2018-03-30T14:51:16.657Z,44.15
2018-03-30T14:53:51.099Z,47.57
2018-03-30T14:56:30.461Z,44.88
2018-03-30T15:02:22.200Z,49.45
2018-03-30T15:04:59.457Z,50.51
2018-03-30T15:07:34.518Z,45.11
2018-03-30T15:10:17.526Z,48.95
2018-03-30T15:12:53.474Z,44.48
2018-03-30T15:15:40.800Z,49.30
2018-03-30T15:18:14.078Z,45.45
2018-03-30T15:20:50.176Z,51.45
2018-03-30T15:23:32.030Z,49.45
2018-03-30T15:26:08.405Z,51.41
2018-03-30T15:28:41.611Z,46.56
2018-03-30T15:31:32.669Z,48.44
2018-03-30T15:34:07.738Z,47.43
2018-03-30T15:39:41.400Z,48.70
2018-03-30T15:42:13.968Z,43.82
2018-03-30T15:44:47.284Z,46.79
2018-03-30T15:47:20.707Z,48.14
2018-03-30T15:49:54.206Z,52.02
2018-03-30T15:52:26.805Z,45.04
2018-03-30T15:54:59.360Z,48.41
2018-03-30T15:57:31.933Z,50.63
2018-03-30T16:00:07.319Z,50.92
2018-03-30T16:02:39.897Z,47.06
2018-03-30T16:05:12.447Z,51.82
2018-03-30T16:07:45.032Z,51.18
2018-03-30T16:10:20.309Z,50.61
2018-03-30T16:13:02.787Z,51.70
2018-03-30T16:15:35.377Z,49.71
2018-03-30T16:18:07.931Z,51.57
2018-03-30T16:20:42.428Z,50.38
2018-03-30T16:23:14.450Z,50.96
2018-03-30T16:25:46.449Z,52.95
2018-03-30T16:28:18.482Z,50.82
2018-03-30T16:30:50.500Z,52.17
2018-03-30T16:33:22.524Z,46.60
2018-03-30T16:35:54.842Z,49.30
2018-03-30T16:38:26.932Z,51.57
2018-03-30T16:40:58.925Z,49.84
2018-03-30T16:43:30.953Z,47.44
2018-03-30T16:46:02.963Z,51.25
2018-03-30T16:48:35.004Z,50.60
2018-03-30T16:51:07.020Z,51.29
2018-03-30T16:53:39.040Z,48.63
2018-03-30T16:56:11.034Z,50.82
2018-03-30T16:58:43.059Z,49.44
2018-03-30T17:01:15.087Z,52.20
2018-03-30T17:03:48.662Z,51.51
2018-03-30T17:06:20.691Z,51.82
2018-03-30T17:08:52.717Z,53.51
2018-03-30T17:11:24.727Z,49.96
2018-03-30T17:13:56.772Z,50.20
2018-03-30T17:16:28.777Z,50.13
2018-03-30T17:19:00.805Z,51.32
2018-03-30T17:21:32.819Z,49.99
2018-03-30T17:24:04.848Z,51.76
2018-03-30T17:26:36.856Z,52.65
2018-03-30T17:29:08.902Z,51.23
2018-03-30T17:31:40.945Z,47.40
2018-03-30T17:34:13.029Z,53.01
2018-03-30T17:36:45.115Z,53.08
2018-03-30T17:39:17.205Z,47.48
2018-03-30T17:41:49.351Z,51.75
2018-03-30T17:44:21.737Z,52.51
2018-03-30T17:46:53.758Z,52.07
2018-03-30T17:49:25.779Z,52.32
2018-03-30T17:51:57.789Z,52.24
2018-03-30T17:54:29.826Z,52.64
2018-03-30T17:57:01.855Z,53.91
2018-03-30T17:59:33.912Z,54.03
2018-03-30T18:02:06.951Z,54.86
2018-03-30T18:04:39.114Z,54.73
2018-03-30T18:07:11.155Z,54.39
2018-03-30T18:09:43.192Z,55.47
2018-03-30T18:12:15.220Z,55.97
2018-03-30T18:14:47.277Z,55.95
2018-03-30T18:17:19.286Z,55.75
2018-03-30T18:19:51.315Z,51.53
2018-03-30T18:22:23.381Z,54.21
2018-03-30T18:24:55.419Z,54.79
2018-03-30T18:27:27.431Z,55.38
2018-03-30T18:29:59.477Z,54.86
2018-03-30T18:32:31.489Z,55.99
2018-03-30T18:35:03.524Z,56.44
2018-03-30T18:37:35.535Z,54.83
2018-03-30T18:40:07.594Z,55.30
2018-03-30T18:42:39.619Z,53.88
2018-03-30T18:45:11.673Z,54.96
2018-03-30T18:47:43.696Z,54.17
2018-03-30T18:50:15.768Z,55.44
2018-03-30T18:52:47.745Z,54.47
2018-03-30T18:55:19.770Z,53.95
2018-03-30T18:57:51.794Z,52.65
2018-03-30T19:00:23.863Z,55.09
2018-03-30T19:02:55.884Z,52.67
2018-03-30T19:05:27.934Z,55.05
2018-03-30T19:07:59.948Z,56.23
2018-03-30T19:10:32.042Z,53.72
2018-03-30T19:13:04.053Z,54.90
2018-03-30T19:15:36.083Z,55.42
2018-03-30T19:18:08.100Z,54.74
2018-03-30T19:20:40.145Z,55.40
2018-03-30T19:23:12.189Z,53.46
2018-03-30T19:25:44.240Z,55.18
2018-03-30T19:28:16.225Z,47.82
2018-03-30T19:30:48.276Z,52.18
2018-03-30T19:33:20.299Z,54.00
2018-03-30T19:35:52.355Z,54.12
2018-03-30T19:38:24.729Z,52.34
2018-03-30T19:40:56.843Z,53.93
2018-03-30T19:43:29.178Z,53.62
2018-03-30T19:46:01.252Z,55.21
2018-03-30T19:48:33.234Z,56.15
2018-03-30T19:51:05.250Z,54.05
2018-03-30T19:53:37.300Z,54.07
2018-03-30T19:56:09.332Z,54.06
2018-03-30T19:58:41.342Z,54.53
2018-03-30T20:01:13.359Z,55.04
2018-03-30T20:03:45.383Z,54.77
2018-03-30T20:06:17.416Z,53.62
2018-03-30T20:08:49.416Z,54.48
2018-03-30T20:11:21.444Z,55.24
2018-03-30T20:16:31.711Z,54.09
2018-03-30T20:19:03.748Z,54.27
2018-03-30T20:21:35.765Z,52.76
2018-03-30T20:24:07.764Z,56.31
2018-03-30T20:26:39.773Z,56.21
2018-03-30T20:29:11.790Z,54.58
2018-03-30T20:31:43.807Z,56.17
2018-03-30T20:34:15.837Z,54.91
2018-03-30T20:36:47.850Z,55.02
2018-03-30T20:39:19.876Z,56.38
2018-03-30T20:41:51.872Z,56.54
2018-03-30T20:44:23.882Z,56.36
2018-03-30T20:46:55.900Z,56.09
2018-03-30T20:49:27.953Z,56.04
2018-03-30T20:51:59.965Z,53.63
2018-03-30T20:54:31.991Z,55.45
2018-03-30T20:57:03.996Z,56.59
2018-03-30T20:59:36.030Z,56.80
2018-03-30T21:02:08.040Z,55.24
2018-03-30T21:04:40.063Z,54.90
2018-03-30T21:07:12.089Z,54.74
2018-03-30T21:09:44.134Z,55.50
2018-03-30T21:12:16.141Z,55.75
2018-03-30T21:14:48.184Z,51.10
2018-03-30T21:17:20.193Z,54.28
2018-03-30T21:19:52.241Z,53.25
2018-03-30T21:22:24.247Z,56.28
2018-03-30T21:24:56.261Z,55.13
2018-03-30T21:27:28.316Z,55.50
2018-03-30T21:30:00.358Z,54.51
2018-03-30T21:32:32.366Z,55.57
2018-03-30T21:35:04.423Z,54.66
2018-03-30T21:37:36.448Z,54.31
2018-03-30T21:40:08.484Z,53.69
2018-03-30T21:42:40.487Z,53.70
2018-03-30T21:45:12.523Z,54.14
2018-03-30T21:47:44.572Z,53.63
2018-03-30T21:50:16.606Z,51.19
2018-03-30T21:52:48.615Z,52.89
2018-03-30T21:55:20.632Z,54.61
2018-03-30T21:57:52.641Z,52.92
2018-03-30T22:00:24.678Z,53.32
2018-03-30T22:02:56.704Z,54.14
2018-03-30T22:05:28.736Z,53.67
2018-03-30T22:08:00.770Z,52.88
2018-03-30T22:10:32.828Z,54.16
2018-03-30T22:13:04.826Z,53.56
2018-03-30T22:15:36.850Z,50.40
2018-03-30T22:18:08.874Z,53.72
2018-03-30T22:20:40.938Z,53.46
2018-03-30T22:23:12.934Z,52.44
2018-03-30T22:25:45.014Z,51.34
2018-03-30T22:28:17.026Z,53.33
2018-03-30T22:30:49.060Z,52.76
2018-03-30T22:33:21.134Z,52.87
2018-03-30T22:35:53.195Z,52.57
2018-03-30T22:38:25.234Z,54.14
2018-03-30T22:40:57.314Z,54.86
2018-03-30T22:43:29.399Z,55.02
2018-03-30T22:46:01.479Z,51.96
2018-03-30T22:48:33.499Z,55.54
2018-03-30T22:53:43.790Z,52.73
2018-03-30T22:56:15.891Z,55.48
2018-03-30T22:58:47.925Z,54.41
2018-03-30T23:01:19.961Z,55.50
2018-03-30T23:03:51.951Z,54.39
2018-03-30T23:06:24.035Z,55.04
2018-03-30T23:08:56.062Z,54.62
2018-03-30T23:11:28.110Z,54.30
2018-03-30T23:14:00.119Z,54.44
2018-03-30T23:16:32.157Z,56.07
2018-03-30T23:19:04.169Z,55.85
2018-03-30T23:21:36.216Z,55.43
2018-03-30T23:24:08.242Z,56.06
2018-03-30T23:26:40.311Z,52.65
2018-03-30T23:29:12.333Z,54.74
2018-03-30T23:31:44.394Z,55.59
2018-03-30T23:34:16.402Z,54.77
2018-03-30T23:36:48.444Z,53.92
2018-03-30T23:39:20.431Z,54.33
2018-03-30T23:41:52.455Z,52.40
2018-03-30T23:44:24.455Z,55.32
2018-03-30T23:46:56.490Z,55.84
2018-03-30T23:49:28.486Z,52.94
2018-03-30T23:52:00.522Z,55.75
2018-03-30T23:54:32.543Z,54.26
2018-03-30T23:57:04.579Z,55.21
2018-03-30T23:59:36.605Z,55.71
